Time;durP1;ratioP1;P1;durP2;ratioP2;P2;SDS_P1;SDS_P2;PMS_P1;PMS_P2;Temp;Humidity;BMP_temperature;BMP_pressure;BME280_temperature;BME280_humidity;BME280_pressure;Samples;Min_cycle;Max_cycle;Signal;HPM_P1;HPM_P2
2022/12/12 00:01:25;;;;;;;21.30;11.40;;;;;;;;;;5053995;28;20308;-37
2022/12/12 00:03:52;;;;;;;23.10;12.23;;;;;;;;;;5052949;28;20241;-40
2022/12/12 00:06:21;;;;;;;19.00;12.20;;;;;;;;;;5048745;28;20241;-30
2022/12/12 00:08:48;;;;;;;21.27;12.23;;;;;;;;;;5066177;28;20205;-34
2022/12/12 00:11:15;;;;;;;18.87;11.13;;;;;;;;;;5049503;28;20229;-34
2022/12/12 00:13:43;;;;;;;21.47;12.67;;;;;;;;;;5042830;28;20207;-38
2022/12/12 00:16:10;;;;;;;17.67;10.50;;;;;;;;;;5067316;28;20222;-29
2022/12/12 00:18:38;;;;;;;15.70;10.13;;;;;;;;;;5049015;28;20646;-33
2022/12/12 00:21:05;;;;;;;18.47;11.30;;;;;;;;;;5056008;28;20232;-32
2022/12/12 00:23:34;;;;;;;15.90;10.17;;;;;;;;;;5056867;28;20272;-39
2022/12/12 00:26:03;;;;;;;19.03;10.77;;;;;;;;;;5062042;28;20217;-33
2022/12/12 00:28:30;;;;;;;17.77;10.83;;;;;;;;;;5070143;28;20249;-34
2022/12/12 00:30:57;;;;;;;16.67;10.23;;;;;;;;;;5055133;28;20226;-39
2022/12/12 00:33:24;;;;;;;19.37;10.57;;;;;;;;;;5055605;28;20269;-38
2022/12/12 00:35:52;;;;;;;18.80;10.90;;;;;;;;;;5042902;28;20329;-31
2022/12/12 00:38:19;;;;;;;19.87;11.67;;;;;;;;;;5051797;28;20297;-36
2022/12/12 00:40:48;;;;;;;16.70;10.07;;;;;;;;;;5053728;28;20230;-36
2022/12/12 00:43:15;;;;;;;16.17;9.57;;;;;;;;;;5050925;28;20280;-33
2022/12/12 00:45:42;;;;;;;18.63;11.00;;;;;;;;;;5062769;28;20328;-34
2022/12/12 00:48:10;;;;;;;19.40;10.30;;;;;;;;;;5050254;28;20229;-33
2022/12/12 00:50:37;;;;;;;23.20;12.13;;;;;;;;;;5051174;28;20232;-33
2022/12/12 00:53:04;;;;;;;21.43;11.90;;;;;;;;;;5055022;28;20212;-33
2022/12/12 00:55:31;;;;;;;18.90;10.97;;;;;;;;;;5067011;28;20233;-31
2022/12/12 00:58:00;;;;;;;18.60;10.13;;;;;;;;;;5046816;28;20206;-35
2022/12/12 01:00:27;;;;;;;19.20;10.27;;;;;;;;;;5051893;28;20224;-36
2022/12/12 01:02:56;;;;;;;17.10;9.97;;;;;;;;;;5064190;28;20206;-33
2022/12/12 01:05:24;;;;;;;18.33;10.83;;;;;;;;;;5045999;28;20198;-35
2022/12/12 01:07:51;;;;;;;15.10;9.93;;;;;;;;;;5045669;28;20228;-33
2022/12/12 01:10:18;;;;;;;22.27;11.07;;;;;;;;;;5050880;28;20208;-34
2022/12/12 01:12:45;;;;;;;16.20;9.97;;;;;;;;;;5038534;28;20210;-34
2022/12/12 01:15:14;;;;;;;20.47;10.70;;;;;;;;;;5060858;28;20228;-30
2022/12/12 01:17:42;;;;;;;20.73;11.17;;;;;;;;;;5058401;28;20234;-35
2022/12/12 01:20:16;;;;;;;21.70;11.93;;;;;;;;;;5047265;28;20206;-36
2022/12/12 01:22:43;;;;;;;16.67;10.27;;;;;;;;;;5049428;28;20666;-38
2022/12/12 01:25:10;;;;;;;18.23;10.67;;;;;;;;;;5073501;28;20201;-36
2022/12/12 01:27:37;;;;;;;19.00;10.53;;;;;;;;;;5035314;28;20208;-32
2022/12/12 01:30:05;;;;;;;20.30;9.97;;;;;;;;;;5057999;28;20202;-31
2022/12/12 01:32:33;;;;;;;21.73;10.90;;;;;;;;;;5050942;28;20281;-31
2022/12/12 01:35:01;;;;;;;15.03;10.43;;;;;;;;;;5052846;28;20228;-33
2022/12/12 01:37:28;;;;;;;19.47;10.30;;;;;;;;;;5053611;28;20201;-33
2022/12/12 01:39:55;;;;;;;18.33;10.00;;;;;;;;;;5057249;28;20225;-33
2022/12/12 01:42:22;;;;;;;16.97;9.90;;;;;;;;;;5041021;28;20233;-36
2022/12/12 01:44:50;;;;;;;17.00;10.20;;;;;;;;;;5049818;28;20234;-35
2022/12/12 01:47:18;;;;;;;18.00;9.53;;;;;;;;;;5050818;28;20220;-29
2022/12/12 01:49:47;;;;;;;17.57;10.63;;;;;;;;;;5048169;28;20207;-32
2022/12/12 01:52:17;;;;;;;18.63;10.23;;;;;;;;;;5042025;28;20290;-37
2022/12/12 01:54:47;;;;;;;17.87;10.60;;;;;;;;;;5045251;28;20198;-37
2022/12/12 01:57:17;;;;;;;15.27;9.87;;;;;;;;;;5040058;28;20268;-33
2022/12/12 01:59:44;;;;;;;19.27;11.30;;;;;;;;;;5055079;28;20205;-35
2022/12/12 02:02:12;;;;;;;18.63;11.03;;;;;;;;;;5055759;28;20225;-29
2022/12/12 02:04:39;;;;;;;16.07;9.90;;;;;;;;;;5067333;28;20202;-35
2022/12/12 02:07:08;;;;;;;18.37;10.63;;;;;;;;;;5053193;28;20220;-37
2022/12/12 02:09:36;;;;;;;18.97;11.17;;;;;;;;;;5047807;28;20598;-39
2022/12/12 02:12:03;;;;;;;17.43;10.40;;;;;;;;;;5050347;28;20292;-38
2022/12/12 02:14:32;;;;;;;19.80;10.23;;;;;;;;;;5044463;28;20375;-39
2022/12/12 02:17:08;;;;;;;17.10;10.27;;;;;;;;;;5052689;28;20264;-35
2022/12/12 02:19:50;;;;;;;18.87;10.90;;;;;;;;;;5048457;28;20198;-32
2022/12/12 02:22:26;;;;;;;16.17;10.70;;;;;;;;;;5033965;28;20272;-30
2022/12/12 02:25:14;;;;;;;15.93;9.87;;;;;;;;;;5063908;28;20212;-32
2022/12/12 02:27:54;;;;;;;16.33;10.40;;;;;;;;;;5039665;28;20235;-33
2022/12/12 02:30:22;;;;;;;17.10;10.20;;;;;;;;;;5059215;28;20280;-40
2022/12/12 02:32:59;;;;;;;15.37;9.20;;;;;;;;;;5072496;28;20205;-35
2022/12/12 02:35:32;;;;;;;15.60;10.40;;;;;;;;;;5067578;28;20217;-37
2022/12/12 02:38:03;;;;;;;19.70;9.07;;;;;;;;;;5054763;28;20292;-34
2022/12/12 02:40:35;;;;;;;13.43;8.47;;;;;;;;;;5047406;28;20230;-32
2022/12/12 02:43:07;;;;;;;18.00;10.47;;;;;;;;;;5046411;28;20198;-35
2022/12/12 02:45:37;;;;;;;15.30;9.47;;;;;;;;;;5052443;28;20226;-36
2022/12/12 02:48:07;;;;;;;17.13;9.77;;;;;;;;;;5052422;28;20201;-30
2022/12/12 02:50:35;;;;;;;18.67;9.77;;;;;;;;;;5041238;28;20226;-34
2022/12/12 02:53:02;;;;;;;16.77;10.13;;;;;;;;;;5062662;28;20210;-31
2022/12/12 02:55:29;;;;;;;17.30;10.73;;;;;;;;;;5053088;28;20228;-33
2022/12/12 02:57:56;;;;;;;16.67;10.03;;;;;;;;;;5042248;28;20213;-31
2022/12/12 03:00:24;;;;;;;17.53;10.33;;;;;;;;;;5072534;28;20247;-30
2022/12/12 03:08:38;;;;;;;16.23;9.27;;;;;;;;;;5051767;28;20210;-35
2022/12/12 03:11:08;;;;;;;19.17;10.93;;;;;;;;;;5048716;28;20345;-36
2022/12/12 03:13:43;;;;;;;19.13;9.47;;;;;;;;;;5049923;28;20202;-36
2022/12/12 03:16:19;;;;;;;12.33;8.47;;;;;;;;;;5060021;28;20695;-37
2022/12/12 03:18:51;;;;;;;15.07;9.27;;;;;;;;;;5051674;28;20260;-32
2022/12/12 03:21:21;;;;;;;17.53;9.80;;;;;;;;;;5044616;28;20233;-34
2022/12/12 03:23:50;;;;;;;14.63;9.47;;;;;;;;;;5064670;28;20205;-31
2022/12/12 03:26:22;;;;;;;17.17;9.80;;;;;;;;;;5059363;28;20289;-34
2022/12/12 03:28:51;;;;;;;15.60;9.13;;;;;;;;;;5041947;28;20203;-34
2022/12/12 03:31:20;;;;;;;18.27;8.93;;;;;;;;;;5058750;28;20251;-35
2022/12/12 03:33:49;;;;;;;17.73;9.40;;;;;;;;;;5051014;28;20205;-36
2022/12/12 03:36:18;;;;;;;16.23;10.40;;;;;;;;;;5054329;28;20326;-36
2022/12/12 03:38:48;;;;;;;16.40;9.07;;;;;;;;;;5052229;28;20203;-35
2022/12/12 03:41:18;;;;;;;16.97;9.20;;;;;;;;;;5037783;28;20276;-32
2022/12/12 03:43:48;;;;;;;16.53;9.27;;;;;;;;;;5052599;28;20464;-35
2022/12/12 03:46:17;;;;;;;14.07;8.43;;;;;;;;;;5067485;28;20201;-34
2022/12/12 03:48:46;;;;;;;11.53;7.97;;;;;;;;;;5050002;28;20214;-36
2022/12/12 03:51:16;;;;;;;10.00;6.57;;;;;;;;;;5061913;28;20250;-34
2022/12/12 03:53:46;;;;;;;13.50;7.77;;;;;;;;;;5060505;28;20206;-38
2022/12/12 03:56:16;;;;;;;15.77;9.53;;;;;;;;;;5065145;28;20221;-38
2022/12/12 03:58:46;;;;;;;14.50;8.90;;;;;;;;;;5035985;28;20245;-33
2022/12/12 04:01:16;;;;;;;13.53;8.30;;;;;;;;;;5050730;28;20255;-38
2022/12/12 04:03:47;;;;;;;14.77;8.00;;;;;;;;;;5058702;28;20202;-31
2022/12/12 04:06:26;;;;;;;12.37;7.70;;;;;;;;;;5048030;28;20391;-33
2022/12/12 04:14:34;;;;;;;12.50;7.23;;;;;;;;;;5054351;28;20258;-32
2022/12/12 04:17:04;;;;;;;13.37;8.47;;;;;;;;;;5054456;28;20210;-34
2022/12/12 04:25:08;;;;;;;14.17;7.73;;;;;;;;;;5059592;28;20212;-33
2022/12/12 04:27:36;;;;;;;12.20;7.33;;;;;;;;;;5039176;28;20203;-31
2022/12/12 04:30:04;;;;;;;12.83;7.00;;;;;;;;;;5063806;28;20205;-35
2022/12/12 04:32:35;;;;;;;12.90;7.57;;;;;;;;;;5042620;28;20202;-32
2022/12/12 04:35:03;;;;;;;11.93;7.00;;;;;;;;;;5033922;28;20210;-37
2022/12/12 04:37:32;;;;;;;12.90;7.60;;;;;;;;;;5052749;28;20289;-31
2022/12/12 04:40:02;;;;;;;12.93;7.87;;;;;;;;;;5066524;28;20292;-33
2022/12/12 04:42:31;;;;;;;11.43;7.27;;;;;;;;;;5044452;28;20317;-32
2022/12/12 04:45:02;;;;;;;11.50;7.57;;;;;;;;;;5042231;28;20199;-34
2022/12/12 04:47:30;;;;;;;11.93;7.23;;;;;;;;;;5063672;28;20261;-32
2022/12/12 04:49:59;;;;;;;12.63;7.43;;;;;;;;;;5043280;28;20211;-34
2022/12/12 04:52:28;;;;;;;11.87;7.30;;;;;;;;;;5049580;28;20233;-31
2022/12/12 04:54:58;;;;;;;11.70;6.90;;;;;;;;;;5067497;28;20205;-36
2022/12/12 04:57:27;;;;;;;12.50;7.33;;;;;;;;;;5041147;28;20226;-34
2022/12/12 04:59:55;;;;;;;11.03;7.67;;;;;;;;;;5043675;28;20229;-39
2022/12/12 05:02:25;;;;;;;9.27;6.87;;;;;;;;;;5054090;28;20279;-40
2022/12/12 05:04:54;;;;;;;11.97;7.27;;;;;;;;;;5042459;28;20301;-31
2022/12/12 05:07:26;;;;;;;9.67;6.97;;;;;;;;;;5051780;28;20296;-32
2022/12/12 05:09:53;;;;;;;10.77;7.13;;;;;;;;;;5053966;28;20281;-32
2022/12/12 05:12:20;;;;;;;12.17;7.63;;;;;;;;;;5036172;28;20230;-35
2022/12/12 05:14:48;;;;;;;10.93;6.70;;;;;;;;;;5050026;28;20201;-29
2022/12/12 05:17:20;;;;;;;9.37;6.07;;;;;;;;;;5063705;28;20226;-30
2022/12/12 05:19:48;;;;;;;10.03;6.20;;;;;;;;;;5034576;28;20191;-37
2022/12/12 05:22:15;;;;;;;11.10;7.63;;;;;;;;;;5045125;28;20244;-41
2022/12/12 05:24:44;;;;;;;12.77;7.13;;;;;;;;;;5056382;28;20287;-39
2022/12/12 05:27:11;;;;;;;12.33;6.40;;;;;;;;;;5049528;28;20210;-38
2022/12/12 05:29:38;;;;;;;9.47;6.90;;;;;;;;;;5055000;28;20259;-42
2022/12/12 05:32:06;;;;;;;9.53;6.47;;;;;;;;;;5061730;28;20363;-34
2022/12/12 05:34:33;;;;;;;9.80;6.27;;;;;;;;;;5051636;28;20233;-38
2022/12/12 05:37:00;;;;;;;12.17;7.17;;;;;;;;;;5044782;28;20219;-30
2022/12/12 05:39:27;;;;;;;12.00;7.03;;;;;;;;;;5049228;28;20210;-33
2022/12/12 05:41:56;;;;;;;13.73;7.60;;;;;;;;;;5047478;28;20226;-39
2022/12/12 05:44:26;;;;;;;9.80;6.90;;;;;;;;;;5052604;28;20302;-31
2022/12/12 05:46:53;;;;;;;14.30;6.90;;;;;;;;;;5067621;28;20252;-34
2022/12/12 05:49:20;;;;;;;12.67;7.03;;;;;;;;;;5046726;28;20289;-31
2022/12/12 05:51:47;;;;;;;10.40;7.03;;;;;;;;;;5049526;28;20313;-32
2022/12/12 05:54:14;;;;;;;11.93;6.70;;;;;;;;;;5061542;28;20216;-32
2022/12/12 05:56:42;;;;;;;9.40;5.93;;;;;;;;;;5042398;28;20218;-32
2022/12/12 05:59:10;;;;;;;9.97;6.93;;;;;;;;;;5051978;28;20289;-34
2022/12/12 06:01:37;;;;;;;11.13;6.97;;;;;;;;;;5068337;28;20220;-33
2022/12/12 06:04:05;;;;;;;10.77;6.47;;;;;;;;;;5057350;28;20216;-34
2022/12/12 06:06:32;;;;;;;10.87;6.83;;;;;;;;;;5047245;28;20207;-36
2022/12/12 06:08:59;;;;;;;11.50;6.53;;;;;;;;;;5058433;28;20269;-37
2022/12/12 06:11:26;;;;;;;11.37;6.83;;;;;;;;;;5056648;28;20222;-30
2022/12/12 06:13:54;;;;;;;10.33;5.37;;;;;;;;;;5052742;28;20212;-33
2022/12/12 06:16:22;;;;;;;10.67;6.40;;;;;;;;;;5055904;28;20205;-33
2022/12/12 06:18:52;;;;;;;9.60;6.23;;;;;;;;;;5051236;28;20212;-30
2022/12/12 06:21:20;;;;;;;10.23;6.93;;;;;;;;;;5045014;28;20232;-35
2022/12/12 06:23:48;;;;;;;11.57;6.00;;;;;;;;;;5064450;28;20205;-32
2022/12/12 06:26:18;;;;;;;9.17;5.67;;;;;;;;;;5047385;28;20202;-32
2022/12/12 06:28:46;;;;;;;12.13;7.13;;;;;;;;;;5048462;28;20209;-36
2022/12/12 06:31:13;;;;;;;11.33;6.67;;;;;;;;;;5053367;28;20276;-37
2022/12/12 06:33:42;;;;;;;10.93;6.20;;;;;;;;;;5053960;28;20242;-35
2022/12/12 06:36:11;;;;;;;10.60;6.60;;;;;;;;;;5057896;28;20202;-31
2022/12/12 06:38:38;;;;;;;10.97;6.77;;;;;;;;;;5054757;28;20328;-37
2022/12/12 06:41:06;;;;;;;7.10;5.37;;;;;;;;;;5057415;28;20236;-32
2022/12/12 06:43:34;;;;;;;10.67;6.37;;;;;;;;;;5055948;28;20202;-36
2022/12/12 06:46:02;;;;;;;9.80;6.10;;;;;;;;;;5066217;28;20236;-30
2022/12/12 06:48:30;;;;;;;13.43;6.87;;;;;;;;;;5036183;28;20225;-35
2022/12/12 06:50:59;;;;;;;10.83;6.10;;;;;;;;;;5032405;28;20231;-35
2022/12/12 06:53:26;;;;;;;13.50;7.13;;;;;;;;;;5059052;28;20274;-41
2022/12/12 06:55:53;;;;;;;14.10;7.50;;;;;;;;;;5055678;28;20229;-31
2022/12/12 06:58:20;;;;;;;17.23;7.00;;;;;;;;;;5045300;28;20222;-37
2022/12/12 07:00:51;;;;;;;13.53;8.13;;;;;;;;;;5055890;28;20293;-36
2022/12/12 07:03:18;;;;;;;9.37;6.67;;;;;;;;;;5063806;28;20209;-31
2022/12/12 07:05:46;;;;;;;10.13;5.93;;;;;;;;;;5049478;28;20292;-38
2022/12/12 07:08:14;;;;;;;11.10;6.80;;;;;;;;;;5057723;28;20209;-34
2022/12/12 07:10:43;;;;;;;9.23;6.53;;;;;;;;;;5042773;28;20230;-31
2022/12/12 07:13:10;;;;;;;11.43;7.03;;;;;;;;;;5048280;28;20269;-34
2022/12/12 07:15:42;;;;;;;10.23;6.63;;;;;;;;;;5051544;28;20296;-36
2022/12/12 07:18:09;;;;;;;12.00;7.40;;;;;;;;;;5052560;28;20218;-37
2022/12/12 07:20:39;;;;;;;12.30;7.43;;;;;;;;;;5045228;28;20228;-30
2022/12/12 07:23:06;;;;;;;10.93;6.77;;;;;;;;;;5056147;28;20296;-33
2022/12/12 07:25:44;;;;;;;12.70;7.73;;;;;;;;;;5055330;28;20208;-32
2022/12/12 07:28:29;;;;;;;11.73;6.60;;;;;;;;;;5047545;28;20229;-32
2022/12/12 07:30:57;;;;;;;14.23;7.37;;;;;;;;;;5056203;28;20223;-33
2022/12/12 07:33:24;;;;;;;15.30;7.33;;;;;;;;;;5072066;28;20213;-30
2022/12/12 07:35:51;;;;;;;12.73;7.87;;;;;;;;;;5052323;28;20213;-40
2022/12/12 07:38:18;;;;;;;12.63;7.40;;;;;;;;;;5039319;28;20219;-35
2022/12/12 07:40:54;;;;;;;14.27;8.43;;;;;;;;;;5040061;28;20223;-32
2022/12/12 07:43:21;;;;;;;16.47;8.03;;;;;;;;;;5043164;28;20844;-35
2022/12/12 07:45:48;;;;;;;13.67;7.93;;;;;;;;;;5053903;28;20285;-29
2022/12/12 07:48:16;;;;;;;13.20;8.40;;;;;;;;;;5059765;28;20194;-35
2022/12/12 07:50:43;;;;;;;14.73;8.57;;;;;;;;;;5054427;28;20317;-35
2022/12/12 07:53:10;;;;;;;12.83;7.80;;;;;;;;;;5046730;28;20203;-34
2022/12/12 07:55:39;;;;;;;14.13;7.43;;;;;;;;;;5058220;28;20244;-36
2022/12/12 07:58:08;;;;;;;14.63;8.63;;;;;;;;;;5047251;28;20305;-34
2022/12/12 08:00:35;;;;;;;14.03;8.20;;;;;;;;;;5053483;28;20228;-31
2022/12/12 08:03:02;;;;;;;13.77;8.53;;;;;;;;;;5069336;28;20198;-33
2022/12/12 08:05:29;;;;;;;14.50;8.37;;;;;;;;;;5038267;28;20208;-33
2022/12/12 08:07:56;;;;;;;11.83;7.87;;;;;;;;;;5054297;28;20209;-33
2022/12/12 08:10:23;;;;;;;14.83;8.53;;;;;;;;;;5051691;28;20198;-38
2022/12/12 08:12:51;;;;;;;13.40;8.43;;;;;;;;;;5051343;28;20209;-36
2022/12/12 08:15:19;;;;;;;12.87;8.07;;;;;;;;;;5054416;28;20198;-37
2022/12/12 08:17:47;;;;;;;14.83;8.20;;;;;;;;;;5041305;28;20229;-35
2022/12/12 08:20:15;;;;;;;12.70;7.43;;;;;;;;;;5059164;28;20212;-34
2022/12/12 08:22:43;;;;;;;14.43;8.70;;;;;;;;;;5051472;28;20663;-31
2022/12/12 08:25:10;;;;;;;17.10;8.07;;;;;;;;;;5041634;28;20213;-33
2022/12/12 08:27:37;;;;;;;14.77;8.50;;;;;;;;;;5046304;28;20205;-37
2022/12/12 08:30:05;;;;;;;13.03;8.20;;;;;;;;;;5047927;28;20206;-34
2022/12/12 08:32:33;;;;;;;14.00;8.80;;;;;;;;;;5072853;28;20201;-34
2022/12/12 08:35:01;;;;;;;12.20;8.10;;;;;;;;;;5048677;28;20468;-33
2022/12/12 08:37:28;;;;;;;16.10;8.80;;;;;;;;;;5049542;28;20219;-34
2022/12/12 08:39:55;;;;;;;15.17;8.70;;;;;;;;;;5074130;28;20196;-29
2022/12/12 08:42:22;;;;;;;13.77;9.13;;;;;;;;;;5036594;28;20227;-40
2022/12/12 08:44:49;;;;;;;16.00;9.00;;;;;;;;;;5050166;28;20210;-36
2022/12/12 08:47:17;;;;;;;15.10;8.47;;;;;;;;;;5040903;28;20206;-39
2022/12/12 08:49:45;;;;;;;14.20;8.87;;;;;;;;;;5047287;28;20202;-36
2022/12/12 08:52:12;;;;;;;12.60;8.10;;;;;;;;;;5049209;28;20232;-33
2022/12/12 08:54:42;;;;;;;15.73;8.87;;;;;;;;;;5036603;28;20213;-32
2022/12/12 08:57:09;;;;;;;15.40;9.70;;;;;;;;;;5035438;28;20222;-38
2022/12/12 08:59:36;;;;;;;16.17;9.70;;;;;;;;;;5052561;28;20235;-33
2022/12/12 09:02:05;;;;;;;13.43;7.97;;;;;;;;;;5048455;28;20285;-30
2022/12/12 09:04:34;;;;;;;13.40;8.70;;;;;;;;;;5041226;28;20204;-39
2022/12/12 09:07:02;;;;;;;13.70;8.57;;;;;;;;;;5038626;28;20220;-30
2022/12/12 09:09:30;;;;;;;18.20;9.83;;;;;;;;;;5040453;28;20297;-40
2022/12/12 09:11:57;;;;;;;17.33;10.50;;;;;;;;;;5043660;28;20217;-34
2022/12/12 09:14:24;;;;;;;13.67;8.30;;;;;;;;;;5051989;28;20198;-34
2022/12/12 09:16:52;;;;;;;14.53;9.13;;;;;;;;;;5036143;28;20311;-32
2022/12/12 09:19:19;;;;;;;13.03;8.07;;;;;;;;;;5033282;28;20226;-31
2022/12/12 09:21:46;;;;;;;14.10;9.50;;;;;;;;;;5038257;28;20285;-33
2022/12/12 09:24:16;;;;;;;13.17;8.73;;;;;;;;;;5032165;28;20220;-32
2022/12/12 09:26:44;;;;;;;18.27;9.40;;;;;;;;;;5036412;28;20208;-30
2022/12/12 09:29:12;;;;;;;14.90;8.63;;;;;;;;;;5038916;28;20294;-35
2022/12/12 09:31:39;;;;;;;13.30;8.73;;;;;;;;;;5037786;28;20230;-31
2022/12/12 09:34:07;;;;;;;14.10;9.13;;;;;;;;;;5043294;28;20273;-34
2022/12/12 09:36:34;;;;;;;16.93;9.83;;;;;;;;;;5041702;28;20269;-30
2022/12/12 09:39:01;;;;;;;17.20;10.10;;;;;;;;;;5025102;28;20229;-33
2022/12/12 09:41:30;;;;;;;14.20;7.60;;;;;;;;;;5035253;28;20233;-34
2022/12/12 09:44:00;;;;;;;13.83;8.53;;;;;;;;;;5044616;28;20228;-36
2022/12/12 09:46:38;;;;;;;14.90;8.27;;;;;;;;;;5062678;28;20202;-36
2022/12/12 09:49:22;;;;;;;15.83;9.70;;;;;;;;;;5050898;28;20215;-32
2022/12/12 09:51:50;;;;;;;13.90;9.37;;;;;;;;;;5047003;28;20239;-37
2022/12/12 09:54:19;;;;;;;16.30;9.23;;;;;;;;;;5050371;28;20212;-33
2022/12/12 09:56:53;;;;;;;14.70;10.70;;;;;;;;;;5048748;28;20244;-32
2022/12/12 09:59:24;;;;;;;13.03;8.63;;;;;;;;;;5044069;28;20224;-32
2022/12/12 10:01:55;;;;;;;15.03;9.43;;;;;;;;;;5065929;28;20221;-35
2022/12/12 10:04:29;;;;;;;16.47;9.47;;;;;;;;;;5057160;28;20205;-39
2022/12/12 10:06:58;;;;;;;16.13;8.97;;;;;;;;;;5047309;28;20218;-34
2022/12/12 10:09:31;;;;;;;16.00;10.40;;;;;;;;;;5064737;28;20212;-35
2022/12/12 10:12:01;;;;;;;12.77;8.37;;;;;;;;;;5048191;28;20226;-39
2022/12/12 10:14:33;;;;;;;18.37;10.40;;;;;;;;;;5051492;28;20198;-29
2022/12/12 10:17:00;;;;;;;16.67;8.10;;;;;;;;;;5067261;28;20310;-32
2022/12/12 10:19:28;;;;;;;15.07;9.07;;;;;;;;;;5057912;28;20221;-36
2022/12/12 10:21:57;;;;;;;15.13;8.67;;;;;;;;;;5049969;28;20232;-32
2022/12/12 10:24:28;;;;;;;13.33;7.87;;;;;;;;;;5059659;28;20201;-36
2022/12/12 10:26:55;;;;;;;16.10;7.80;;;;;;;;;;5038413;28;20206;-34
2022/12/12 10:29:26;;;;;;;11.60;6.67;;;;;;;;;;5058777;28;20268;-39
2022/12/12 10:31:57;;;;;;;3.27;2.37;;;;;;;;;;5060288;28;20273;-33
2022/12/12 10:34:36;;;;;;;13.57;8.83;;;;;;;;;;5052721;28;20292;-35
2022/12/12 10:37:10;;;;;;;15.87;8.77;;;;;;;;;;5038730;28;20286;-31
2022/12/12 10:39:44;;;;;;;19.00;8.87;;;;;;;;;;5052440;28;20227;-33
2022/12/12 10:42:15;;;;;;;18.57;10.27;;;;;;;;;;5047988;28;20230;-36
2022/12/12 10:45:01;;;;;;;16.30;9.80;;;;;;;;;;5048374;28;20207;-32
2022/12/12 10:47:36;;;;;;;18.33;9.57;;;;;;;;;;5072805;28;20284;-30
2022/12/12 10:50:22;;;;;;;16.03;9.77;;;;;;;;;;5052539;28;20206;-37
2022/12/12 10:53:07;;;;;;;14.40;9.00;;;;;;;;;;5042204;28;20223;-33
2022/12/12 10:55:37;;;;;;;15.27;9.37;;;;;;;;;;5055873;28;20202;-32
2022/12/12 10:58:05;;;;;;;19.30;8.90;;;;;;;;;;5044735;28;20220;-39
2022/12/12 11:00:33;;;;;;;18.33;10.70;;;;;;;;;;5060391;28;20228;-37
2022/12/12 11:03:11;;;;;;;15.40;8.77;;;;;;;;;;5061611;28;20210;-30
2022/12/12 11:05:39;;;;;;;16.93;10.43;;;;;;;;;;5048129;28;20198;-31
2022/12/12 11:08:17;;;;;;;13.63;9.60;;;;;;;;;;5055595;28;20862;-34
2022/12/12 11:10:44;;;;;;;21.47;9.63;;;;;;;;;;5041798;28;20230;-41
2022/12/12 11:13:15;;;;;;;20.27;12.13;;;;;;;;;;5043853;28;20206;-32
2022/12/12 11:15:45;;;;;;;17.23;9.83;;;;;;;;;;5050299;28;20205;-31
2022/12/12 11:18:15;;;;;;;15.23;9.57;;;;;;;;;;5050778;28;20313;-38
2022/12/12 11:20:46;;;;;;;19.60;10.30;;;;;;;;;;5053820;28;20222;-38
2022/12/12 11:23:17;;;;;;;15.23;7.93;;;;;;;;;;5044004;28;20209;-33
2022/12/12 11:25:45;;;;;;;12.53;8.07;;;;;;;;;;5046750;28;20211;-33
2022/12/12 11:28:16;;;;;;;14.03;9.33;;;;;;;;;;5044395;28;20264;-33
2022/12/12 11:30:44;;;;;;;15.60;9.37;;;;;;;;;;5054543;28;20248;-36
2022/12/12 11:33:18;;;;;;;16.90;9.07;;;;;;;;;;5056016;28;20213;-39
2022/12/12 11:35:46;;;;;;;17.57;10.30;;;;;;;;;;5047082;28;20215;-33
2022/12/12 11:38:17;;;;;;;14.23;8.50;;;;;;;;;;5057061;28;20233;-35
2022/12/12 11:40:44;;;;;;;15.57;9.00;;;;;;;;;;5050593;28;20265;-32
2022/12/12 11:43:18;;;;;;;15.33;9.20;;;;;;;;;;5044075;28;20297;-33
2022/12/12 11:45:58;;;;;;;16.27;9.87;;;;;;;;;;5048646;28;20201;-32
2022/12/12 11:48:32;;;;;;;17.67;9.33;;;;;;;;;;5072719;28;20239;-27
2022/12/12 11:51:01;;;;;;;14.67;8.07;;;;;;;;;;5040065;28;20253;-30
2022/12/12 11:53:28;;;;;;;14.23;8.80;;;;;;;;;;5052869;28;20202;-31
2022/12/12 11:55:59;;;;;;;18.13;10.00;;;;;;;;;;5045098;28;20217;-38
2022/12/12 11:58:27;;;;;;;17.93;10.07;;;;;;;;;;5043884;28;20216;-31
2022/12/12 12:00:57;;;;;;;14.40;9.03;;;;;;;;;;5053310;28;20232;-32
2022/12/12 12:03:27;;;;;;;13.00;7.00;;;;;;;;;;5059466;28;20208;-34
2022/12/12 12:06:00;;;;;;;14.03;9.43;;;;;;;;;;5043180;28;20198;-29
2022/12/12 12:08:40;;;;;;;16.33;8.97;;;;;;;;;;5057132;28;20204;-33
2022/12/12 12:11:16;;;;;;;18.33;7.57;;;;;;;;;;5063889;28;20243;-35
2022/12/12 12:13:50;;;;;;;16.27;8.40;;;;;;;;;;5044317;28;20208;-31
2022/12/12 12:16:20;;;;;;;13.83;9.00;;;;;;;;;;5062812;28;20198;-38
2022/12/12 12:18:56;;;;;;;15.70;8.60;;;;;;;;;;5049311;28;20226;-39
2022/12/12 12:21:37;;;;;;;14.53;9.57;;;;;;;;;;5051545;28;20241;-34
2022/12/12 12:24:14;;;;;;;13.83;8.57;;;;;;;;;;5054793;28;20280;-34
2022/12/12 12:26:53;;;;;;;17.23;9.50;;;;;;;;;;5048604;28;20220;-35
2022/12/12 12:29:30;;;;;;;16.00;9.43;;;;;;;;;;5049429;28;20202;-37
2022/12/12 12:32:03;;;;;;;15.13;9.67;;;;;;;;;;5058300;28;20403;-31
2022/12/12 12:34:31;;;;;;;16.57;10.00;;;;;;;;;;5053046;28;20195;-31
2022/12/12 12:37:07;;;;;;;14.43;8.87;;;;;;;;;;5055392;28;20231;-36
2022/12/12 12:39:42;;;;;;;13.80;8.60;;;;;;;;;;5058612;28;20221;-28
2022/12/12 12:42:18;;;;;;;17.47;8.03;;;;;;;;;;5043908;28;20393;-36
2022/12/12 12:44:47;;;;;;;13.43;8.10;;;;;;;;;;5047775;28;20201;-34
2022/12/12 12:47:20;;;;;;;10.87;7.30;;;;;;;;;;5058359;28;20209;-37
2022/12/12 12:49:50;;;;;;;13.33;7.20;;;;;;;;;;5048823;28;20887;-33
2022/12/12 12:52:20;;;;;;;13.97;8.97;;;;;;;;;;5054152;28;20231;-26
2022/12/12 12:55:00;;;;;;;15.00;8.27;;;;;;;;;;5048908;28;20220;-33
2022/12/12 12:57:30;;;;;;;11.03;7.23;;;;;;;;;;5047249;28;20203;-34
2022/12/12 12:59:59;;;;;;;13.50;7.93;;;;;;;;;;5045618;28;20211;-36
2022/12/12 13:02:34;;;;;;;11.53;7.37;;;;;;;;;;5043732;28;20236;-40
2022/12/12 13:05:05;;;;;;;12.40;7.63;;;;;;;;;;5042081;28;20198;-41
2022/12/12 13:07:37;;;;;;;9.37;7.47;;;;;;;;;;5045808;28;20210;-38
2022/12/12 13:10:07;;;;;;;10.43;6.93;;;;;;;;;;5040287;28;20276;-40
2022/12/12 13:12:37;;;;;;;9.93;6.27;;;;;;;;;;5045707;28;20630;-41
2022/12/12 13:15:07;;;;;;;10.90;6.30;;;;;;;;;;5052613;28;20269;-34
2022/12/12 13:17:41;;;;;;;12.07;7.23;;;;;;;;;;5067751;28;20205;-33
2022/12/12 13:20:14;;;;;;;10.27;6.57;;;;;;;;;;5051216;28;20216;-29
2022/12/12 13:22:46;;;;;;;10.73;6.60;;;;;;;;;;5060316;28;20201;-32
2022/12/12 13:25:16;;;;;;;11.37;6.60;;;;;;;;;;5056064;28;20205;-38
2022/12/12 13:27:48;;;;;;;10.70;6.87;;;;;;;;;;5050153;28;20209;-36
2022/12/12 13:30:20;;;;;;;9.40;6.33;;;;;;;;;;5055990;28;20511;-30
2022/12/12 13:33:00;;;;;;;12.23;6.23;;;;;;;;;;5049584;28;20275;-33
2022/12/12 13:35:30;;;;;;;11.57;6.73;;;;;;;;;;5050420;28;20271;-34
2022/12/12 13:37:58;;;;;;;11.20;6.70;;;;;;;;;;5058067;28;20296;-35
2022/12/12 13:40:27;;;;;;;11.13;6.53;;;;;;;;;;5042260;28;20222;-32
2022/12/12 13:42:57;;;;;;;11.97;7.43;;;;;;;;;;5040275;28;20210;-34
2022/12/12 13:45:35;;;;;;;10.17;6.60;;;;;;;;;;5058133;28;20322;-40
2022/12/12 13:48:03;;;;;;;11.00;6.87;;;;;;;;;;5042700;28;20277;-36
2022/12/12 13:50:31;;;;;;;9.80;6.30;;;;;;;;;;5044155;28;20222;-29
2022/12/12 13:53:20;;;;;;;9.13;5.60;;;;;;;;;;5058538;28;20213;-31
2022/12/12 13:55:48;;;;;;;7.30;5.00;;;;;;;;;;5052464;28;20262;-36
2022/12/12 13:58:21;;;;;;;8.53;4.80;;;;;;;;;;5049035;28;20281;-36
2022/12/12 14:00:49;;;;;;;9.10;4.73;;;;;;;;;;5057630;28;20232;-33
2022/12/12 14:03:38;;;;;;;7.47;4.60;;;;;;;;;;5044523;28;20222;-29
2022/12/12 14:06:10;;;;;;;10.43;5.20;;;;;;;;;;5034212;28;20205;-30
2022/12/12 14:08:38;;;;;;;8.73;5.60;;;;;;;;;;5051727;28;20206;-35
2022/12/12 14:11:09;;;;;;;8.33;4.83;;;;;;;;;;5044188;28;20232;-30
2022/12/12 14:13:44;;;;;;;11.37;5.87;;;;;;;;;;5048978;28;20198;-35
2022/12/12 14:16:35;;;;;;;9.53;6.17;;;;;;;;;;5049995;28;20200;-36
2022/12/12 14:19:19;;;;;;;8.00;4.83;;;;;;;;;;5014184;28;20719;-35
2022/12/12 14:21:46;;;;;;;6.93;4.00;;;;;;;;;;5035983;28;20225;-35
2022/12/12 14:24:32;;;;;;;8.13;4.30;;;;;;;;;;5047262;28;20215;-37
2022/12/12 14:27:00;;;;;;;8.13;4.10;;;;;;;;;;5042344;28;20289;-34
2022/12/12 14:29:29;;;;;;;5.80;4.03;;;;;;;;;;5054306;28;20200;-31
2022/12/12 14:32:09;;;;;;;5.93;4.23;;;;;;;;;;5051808;28;20226;-31
2022/12/12 14:34:42;;;;;;;7.30;3.90;;;;;;;;;;5042511;28;20216;-35
2022/12/12 14:37:23;;;;;;;5.83;3.20;;;;;;;;;;5046336;28;20201;-33
2022/12/12 14:39:59;;;;;;;4.73;3.17;;;;;;;;;;5044472;28;20229;-32
2022/12/12 14:42:28;;;;;;;4.93;3.53;;;;;;;;;;5047892;28;20313;-32
2022/12/12 14:44:57;;;;;;;4.80;3.60;;;;;;;;;;5046089;28;20216;-36
2022/12/12 14:47:24;;;;;;;6.00;3.50;;;;;;;;;;5044439;28;20296;-37
2022/12/12 14:50:06;;;;;;;7.90;5.17;;;;;;;;;;5047841;28;20256;-30
2022/12/12 14:52:33;;;;;;;9.07;5.27;;;;;;;;;;5048509;28;20195;-36
2022/12/12 14:55:04;;;;;;;10.20;5.60;;;;;;;;;;5053694;28;20228;-37
2022/12/12 14:57:31;;;;;;;11.27;5.50;;;;;;;;;;5041722;28;20249;-37
2022/12/12 15:00:01;;;;;;;8.33;5.80;;;;;;;;;;5047516;28;20228;-33
2022/12/12 15:02:33;;;;;;;7.03;5.37;;;;;;;;;;5048922;28;20345;-30